Time;durP1;ratioP1;P1;durP2;ratioP2;P2;SDS_P1;SDS_P2;PMS_P1;PMS_P2;Temp;Humidity;BMP_temperature;BMP_pressure;BME280_temperature;BME280_humidity;BME280_pressure;Samples;Min_cycle;Max_cycle;Signal;HPM_P1;HPM_P2
2021/10/22 00:00:47;;;;;;;8.43;1.27;;;;;;;;;;5062867;28;20105;-65
2021/10/22 00:03:13;;;;;;;8.33;1.50;;;;;;;;;;5071177;28;20044;-65
2021/10/22 00:05:40;;;;;;;13.93;1.58;;;;;;;;;;5053679;28;20072;-65
2021/10/22 00:08:06;;;;;;;8.13;2.10;;;;;;;;;;5064374;28;20049;-66
2021/10/22 00:10:33;;;;;;;14.13;2.20;;;;;;;;;;5067733;28;20128;-66
2021/10/22 00:13:00;;;;;;;13.68;2.33;;;;;;;;;;5068116;28;20326;-66
2021/10/22 00:15:26;;;;;;;13.73;2.15;;;;;;;;;;5066415;28;20090;-65
2021/10/22 00:17:53;;;;;;;14.63;2.30;;;;;;;;;;5067200;28;20130;-65
2021/10/22 00:20:19;;;;;;;8.93;2.22;;;;;;;;;;5066101;28;20147;-65
2021/10/22 00:22:46;;;;;;;11.75;1.70;;;;;;;;;;5068694;28;20080;-65
2021/10/22 00:25:13;;;;;;;8.00;1.48;;;;;;;;;;5063819;28;20542;-65
2021/10/22 00:27:39;;;;;;;7.47;1.53;;;;;;;;;;5069899;28;20079;-65
2021/10/22 00:30:06;;;;;;;21.63;2.83;;;;;;;;;;5064755;28;20375;-65
2021/10/22 00:32:33;;;;;;;12.35;1.83;;;;;;;;;;5068811;28;20143;-65
2021/10/22 00:34:59;;;;;;;9.98;1.58;;;;;;;;;;5069081;28;20087;-65
2021/10/22 00:37:26;;;;;;;13.85;1.50;;;;;;;;;;5065377;28;20146;-65
2021/10/22 00:39:52;;;;;;;11.65;1.90;;;;;;;;;;5063813;28;20469;-66
2021/10/22 00:42:20;;;;;;;7.13;1.35;;;;;;;;;;5064226;28;20044;-65
2021/10/22 00:44:47;;;;;;;15.10;1.90;;;;;;;;;;5068340;28;20511;-65
2021/10/22 00:47:14;;;;;;;12.27;1.85;;;;;;;;;;5065475;28;20052;-65
2021/10/22 00:49:41;;;;;;;11.88;1.90;;;;;;;;;;5067733;28;20529;-66
2021/10/22 00:52:08;;;;;;;7.28;2.10;;;;;;;;;;5061472;28;20094;-66
2021/10/22 00:54:35;;;;;;;9.38;1.63;;;;;;;;;;5068873;28;20076;-65
2021/10/22 00:57:02;;;;;;;12.88;2.22;;;;;;;;;;5064229;28;20079;-65
2021/10/22 00:59:28;;;;;;;11.33;1.93;;;;;;;;;;5064906;28;20583;-65
2021/10/22 01:01:55;;;;;;;19.48;2.05;;;;;;;;;;5063163;28;20469;-65
2021/10/22 01:04:21;;;;;;;12.33;2.63;;;;;;;;;;5064243;28;20048;-65
2021/10/22 01:06:48;;;;;;;12.35;2.13;;;;;;;;;;5063708;28;20339;-65
2021/10/22 01:09:15;;;;;;;18.98;2.65;;;;;;;;;;5068747;28;20068;-65
2021/10/22 01:11:42;;;;;;;12.55;2.30;;;;;;;;;;5060580;28;20084;-65
2021/10/22 01:14:08;;;;;;;17.50;2.42;;;;;;;;;;5059459;28;20088;-65
2021/10/22 01:16:36;;;;;;;8.23;1.93;;;;;;;;;;5071067;28;20114;-65
2021/10/22 01:19:03;;;;;;;10.77;1.85;;;;;;;;;;5053348;28;20472;-65
2021/10/22 01:21:30;;;;;;;16.20;2.50;;;;;;;;;;5058022;28;20135;-65
2021/10/22 01:23:57;;;;;;;9.75;1.92;;;;;;;;;;5062989;28;20623;-65
2021/10/22 01:26:23;;;;;;;13.82;2.53;;;;;;;;;;5065722;28;20083;-65
2021/10/22 01:28:50;;;;;;;19.42;2.63;;;;;;;;;;5066005;28;20072;-66
2021/10/22 01:31:17;;;;;;;16.80;2.40;;;;;;;;;;5064184;28;20519;-65
2021/10/22 01:33:43;;;;;;;16.33;2.50;;;;;;;;;;5065781;28;20102;-65
2021/10/22 01:36:10;;;;;;;14.55;2.10;;;;;;;;;;5067012;28;20113;-65
2021/10/22 01:38:37;;;;;;;7.88;1.92;;;;;;;;;;5064872;28;20497;-65
2021/10/22 01:41:03;;;;;;;10.50;2.08;;;;;;;;;;5067133;28;20531;-65
2021/10/22 01:43:30;;;;;;;13.80;2.13;;;;;;;;;;5062476;28;20097;-65
2021/10/22 01:45:57;;;;;;;5.93;1.33;;;;;;;;;;5067581;28;20045;-65
2021/10/22 01:48:24;;;;;;;14.07;1.58;;;;;;;;;;5069552;28;20049;-65
2021/10/22 01:50:50;;;;;;;11.55;2.00;;;;;;;;;;5062685;28;20056;-65
2021/10/22 01:53:18;;;;;;;11.68;2.00;;;;;;;;;;5064820;28;20084;-65
2021/10/22 01:55:45;;;;;;;18.13;2.85;;;;;;;;;;5061599;28;20079;-65
2021/10/22 01:58:11;;;;;;;14.85;2.13;;;;;;;;;;5064980;28;20076;-65
2021/10/22 02:00:38;;;;;;;15.95;2.25;;;;;;;;;;5066758;28;20273;-65
2021/10/22 02:03:05;;;;;;;13.13;2.17;;;;;;;;;;5064234;28;20060;-65
2021/10/22 02:05:32;;;;;;;17.10;2.38;;;;;;;;;;5060526;28;20447;-65
2021/10/22 02:07:59;;;;;;;15.95;2.33;;;;;;;;;;5062384;28;20603;-65
2021/10/22 02:10:25;;;;;;;14.93;2.40;;;;;;;;;;5057129;28;20091;-65
2021/10/22 02:12:54;;;;;;;14.60;2.15;;;;;;;;;;5065025;28;20491;-65
2021/10/22 02:15:21;;;;;;;18.85;2.45;;;;;;;;;;5067392;28;20148;-65
2021/10/22 02:17:47;;;;;;;16.27;3.20;;;;;;;;;;5064983;28;20132;-65
2021/10/22 02:20:14;;;;;;;18.05;2.33;;;;;;;;;;5063089;28;20139;-65
2021/10/22 02:22:41;;;;;;;15.18;2.15;;;;;;;;;;5067047;28;20516;-65
2021/10/22 02:25:08;;;;;;;15.87;2.67;;;;;;;;;;5066819;28;20882;-65
2021/10/22 02:27:34;;;;;;;17.33;2.58;;;;;;;;;;5062825;28;20385;-65
2021/10/22 02:30:16;;;;;;;12.13;2.47;;;;;;;;;;5058826;28;20127;-65
2021/10/22 02:32:42;;;;;;;17.63;2.75;;;;;;;;;;5065782;28;20082;-65
2021/10/22 02:35:09;;;;;;;18.15;2.80;;;;;;;;;;5065676;28;20072;-65
2021/10/22 02:37:36;;;;;;;23.35;2.58;;;;;;;;;;5063232;28;20133;-66
2021/10/22 02:40:02;;;;;;;16.05;2.65;;;;;;;;;;5063839;28;20131;-65
2021/10/22 02:42:29;;;;;;;15.43;2.20;;;;;;;;;;5065493;28;20049;-65
2021/10/22 02:44:55;;;;;;;16.05;2.15;;;;;;;;;;5063308;28;20141;-65
2021/10/22 02:47:22;;;;;;;13.35;2.10;;;;;;;;;;5066526;28;20140;-65
2021/10/22 02:49:48;;;;;;;19.20;2.50;;;;;;;;;;5062215;28;20148;-65
2021/10/22 02:52:15;;;;;;;15.82;1.90;;;;;;;;;;5061394;28;20048;-65
2021/10/22 02:54:42;;;;;;;29.23;3.90;;;;;;;;;;5064997;28;20140;-66
2021/10/22 02:57:08;;;;;;;12.23;2.22;;;;;;;;;;5061430;28;20071;-65
2021/10/22 02:59:35;;;;;;;13.93;2.40;;;;;;;;;;5055397;28;20634;-65
2021/10/22 03:02:01;;;;;;;13.45;2.63;;;;;;;;;;5061737;28;20136;-65
2021/10/22 03:04:28;;;;;;;13.55;2.20;;;;;;;;;;5056974;28;20045;-66
2021/10/22 03:06:54;;;;;;;11.25;2.00;;;;;;;;;;5063668;28;20131;-66
2021/10/22 03:09:21;;;;;;;12.15;2.20;;;;;;;;;;5066719;28;20075;-66
2021/10/22 03:11:47;;;;;;;13.77;2.70;;;;;;;;;;5063493;28;20097;-65
2021/10/22 03:14:13;;;;;;;13.00;2.05;;;;;;;;;;5065644;28;20499;-65
2021/10/22 03:16:43;;;;;;;11.55;2.40;;;;;;;;;;5066979;28;20096;-65
2021/10/22 03:19:11;;;;;;;19.15;2.78;;;;;;;;;;5061613;28;20216;-66
2021/10/22 03:21:38;;;;;;;15.35;2.30;;;;;;;;;;5061109;28;20554;-65
2021/10/22 03:24:05;;;;;;;17.17;1.98;;;;;;;;;;5060219;28;20139;-65
2021/10/22 03:26:31;;;;;;;11.90;2.08;;;;;;;;;;5055685;28;20072;-65
2021/10/22 03:28:58;;;;;;;20.15;2.97;;;;;;;;;;5057987;28;20048;-66
2021/10/22 03:31:25;;;;;;;13.82;2.40;;;;;;;;;;5059196;28;20076;-65
2021/10/22 03:33:51;;;;;;;23.63;2.20;;;;;;;;;;5055259;28;20568;-66
2021/10/22 03:36:17;;;;;;;21.92;2.65;;;;;;;;;;5064391;28;20523;-65
2021/10/22 03:38:44;;;;;;;12.90;2.53;;;;;;;;;;5065856;28;20564;-66
2021/10/22 03:41:11;;;;;;;10.18;2.58;;;;;;;;;;5064401;28;20041;-66
2021/10/22 03:43:37;;;;;;;14.10;2.70;;;;;;;;;;5062890;28;20461;-66
2021/10/22 03:46:04;;;;;;;13.77;2.70;;;;;;;;;;5061940;28;20072;-66
2021/10/22 03:48:31;;;;;;;16.20;2.30;;;;;;;;;;5063784;28;20578;-66
2021/10/22 03:50:58;;;;;;;8.30;2.10;;;;;;;;;;5062974;28;20411;-66
2021/10/22 03:53:25;;;;;;;13.60;2.53;;;;;;;;;;5060289;28;20135;-66
2021/10/22 03:55:51;;;;;;;16.67;2.25;;;;;;;;;;5063769;28;20049;-65
2021/10/22 03:58:18;;;;;;;13.32;3.03;;;;;;;;;;5066208;28;20773;-66
2021/10/22 04:00:46;;;;;;;8.65;2.47;;;;;;;;;;5062751;28;20136;-66
2021/10/22 04:03:14;;;;;;;17.08;2.47;;;;;;;;;;5063545;28;20052;-66
2021/10/22 04:05:43;;;;;;;9.93;2.28;;;;;;;;;;5065087;28;20504;-66
2021/10/22 04:08:09;;;;;;;11.45;2.13;;;;;;;;;;5070065;28;20091;-66
2021/10/22 04:10:36;;;;;;;11.77;2.47;;;;;;;;;;5066240;28;20077;-66
2021/10/22 04:13:03;;;;;;;19.00;2.40;;;;;;;;;;5060615;28;20104;-66
2021/10/22 04:15:30;;;;;;;19.60;3.80;;;;;;;;;;5065290;28;20056;-66
2021/10/22 04:17:56;;;;;;;14.18;2.22;;;;;;;;;;5063364;28;20412;-66
2021/10/22 04:20:23;;;;;;;15.63;2.20;;;;;;;;;;5062820;28;20133;-66
2021/10/22 04:22:50;;;;;;;15.65;2.90;;;;;;;;;;5063892;28;20558;-66
2021/10/22 04:25:16;;;;;;;12.25;2.30;;;;;;;;;;5063641;28;20056;-66
2021/10/22 04:27:43;;;;;;;17.80;2.28;;;;;;;;;;5070131;28;20672;-66
2021/10/22 04:30:09;;;;;;;18.38;2.47;;;;;;;;;;5064583;28;20509;-66
2021/10/22 04:32:36;;;;;;;14.23;1.88;;;;;;;;;;5062155;28;20045;-66
2021/10/22 04:35:03;;;;;;;17.15;2.33;;;;;;;;;;5063087;28;20084;-66
2021/10/22 04:37:33;;;;;;;25.00;2.30;;;;;;;;;;5066492;28;20085;-66
2021/10/22 04:42:47;;;;;;;9.13;2.10;;;;;;;;;;5066159;28;20467;-66
2021/10/22 04:45:15;;;;;;;14.63;3.13;;;;;;;;;;5060942;28;20563;-65
2021/10/22 04:47:41;;;;;;;12.60;1.80;;;;;;;;;;5065455;28;20076;-66
2021/10/22 04:50:09;;;;;;;18.90;3.03;;;;;;;;;;5067349;28;20122;-66
2021/10/22 04:52:36;;;;;;;12.35;2.08;;;;;;;;;;5063702;28;20598;-66
2021/10/22 04:55:03;;;;;;;12.53;1.73;;;;;;;;;;5066257;28;20128;-66
2021/10/22 04:57:30;;;;;;;11.48;2.67;;;;;;;;;;5065801;28;20049;-66
2021/10/22 04:59:56;;;;;;;11.15;1.63;;;;;;;;;;5069803;28;20571;-66
2021/10/22 05:02:27;;;;;;;25.02;2.90;;;;;;;;;;5065659;28;20103;-66
2021/10/22 05:04:54;;;;;;;13.53;2.20;;;;;;;;;;5063955;28;20048;-66
2021/10/22 05:07:20;;;;;;;9.30;2.67;;;;;;;;;;5066271;28;20087;-66
2021/10/22 05:09:47;;;;;;;12.70;2.63;;;;;;;;;;5056851;28;20363;-66
2021/10/22 05:12:13;;;;;;;12.00;1.88;;;;;;;;;;5066156;28;20083;-66
2021/10/22 05:14:40;;;;;;;17.85;2.95;;;;;;;;;;5065586;28;20492;-66
2021/10/22 05:17:06;;;;;;;15.35;1.92;;;;;;;;;;5060956;28;20136;-66
2021/10/22 05:19:33;;;;;;;17.92;2.88;;;;;;;;;;5063435;28;20477;-66
2021/10/22 05:21:59;;;;;;;9.25;2.53;;;;;;;;;;5059006;28;20043;-66
2021/10/22 05:24:26;;;;;;;15.85;2.25;;;;;;;;;;5046887;28;20144;-67
2021/10/22 05:26:52;;;;;;;12.38;2.13;;;;;;;;;;5062569;28;20072;-66
2021/10/22 05:29:19;;;;;;;15.48;1.98;;;;;;;;;;5061666;28;20140;-67
2021/10/22 05:31:45;;;;;;;17.70;2.40;;;;;;;;;;5054709;28;20129;-66
2021/10/22 05:34:12;;;;;;;13.85;2.40;;;;;;;;;;5055980;28;20048;-66
2021/10/22 05:36:39;;;;;;;17.65;2.45;;;;;;;;;;5059847;28;20508;-66
2021/10/22 05:39:05;;;;;;;6.35;1.80;;;;;;;;;;5061406;28;20480;-66
2021/10/22 05:41:32;;;;;;;16.85;2.08;;;;;;;;;;5062443;28;20091;-66
2021/10/22 05:43:59;;;;;;;8.93;1.90;;;;;;;;;;5064545;28;20041;-66
2021/10/22 05:46:25;;;;;;;10.73;2.35;;;;;;;;;;5063365;28;20123;-66
2021/10/22 05:48:52;;;;;;;37.90;3.38;;;;;;;;;;5063428;28;20053;-66
2021/10/22 05:51:18;;;;;;;13.20;2.20;;;;;;;;;;5064733;28;20110;-67
2021/10/22 05:53:45;;;;;;;19.77;2.40;;;;;;;;;;5060327;28;20134;-66
2021/10/22 05:56:12;;;;;;;10.10;2.28;;;;;;;;;;5041735;28;20147;-66
2021/10/22 05:58:39;;;;;;;11.13;2.28;;;;;;;;;;5062007;28;20095;-67
2021/10/22 06:01:05;;;;;;;16.63;3.10;;;;;;;;;;5065924;28;20082;-67
2021/10/22 06:03:51;;;;;;;12.77;2.63;;;;;;;;;;5060991;28;20484;-66
2021/10/22 06:06:18;;;;;;;19.02;2.80;;;;;;;;;;5062531;28;20467;-66
2021/10/22 06:08:45;;;;;;;11.52;2.33;;;;;;;;;;5063438;28;20137;-66
2021/10/22 06:11:12;;;;;;;20.13;2.88;;;;;;;;;;5064132;28;20082;-66
2021/10/22 06:13:39;;;;;;;13.03;1.83;;;;;;;;;;5067579;28;20433;-66
2021/10/22 06:16:07;;;;;;;15.18;2.35;;;;;;;;;;5064187;28;20723;-67
2021/10/22 06:18:34;;;;;;;13.23;2.47;;;;;;;;;;5064705;28;20454;-66
2021/10/22 06:21:07;;;;;;;13.63;2.08;;;;;;;;;;5060475;28;20611;-66
2021/10/22 06:26:19;;;;;;;19.70;3.08;;;;;;;;;;5057889;28;20143;-67
2021/10/22 06:28:46;;;;;;;10.13;2.20;;;;;;;;;;5060040;28;20041;-66
2021/10/22 06:31:13;;;;;;;9.55;2.28;;;;;;;;;;5064540;28;20492;-66
2021/10/22 06:33:40;;;;;;;15.52;2.53;;;;;;;;;;5060630;28;20048;-66
2021/10/22 06:36:07;;;;;;;13.73;1.65;;;;;;;;;;5062476;28;20060;-67
2021/10/22 06:38:34;;;;;;;11.80;1.80;;;;;;;;;;5064782;28;20063;-66
2021/10/22 06:41:01;;;;;;;19.17;3.17;;;;;;;;;;5068421;28;20539;-66
2021/10/22 06:43:29;;;;;;;15.55;2.35;;;;;;;;;;5063681;28;20079;-66
2021/10/22 06:45:55;;;;;;;24.95;2.60;;;;;;;;;;5059377;28;20045;-66
2021/10/22 06:48:22;;;;;;;11.07;1.90;;;;;;;;;;5062150;28;20621;-66
2021/10/22 06:50:49;;;;;;;12.48;2.25;;;;;;;;;;5055714;28;20456;-66
2021/10/22 06:53:15;;;;;;;12.30;2.25;;;;;;;;;;5065584;28;20453;-67
2021/10/22 06:55:42;;;;;;;12.27;2.43;;;;;;;;;;5068127;28;20088;-67
2021/10/22 06:58:09;;;;;;;11.10;2.58;;;;;;;;;;5060994;28;20438;-66
2021/10/22 07:00:36;;;;;;;12.68;2.35;;;;;;;;;;5047575;28;20060;-67
2021/10/22 07:03:03;;;;;;;21.80;2.90;;;;;;;;;;5064884;28;20409;-66
2021/10/22 07:07:56;;;;;;;12.50;2.03;;;;;;;;;;5064944;28;20121;-66
2021/10/22 07:10:23;;;;;;;8.65;2.58;;;;;;;;;;5067482;28;20131;-66
2021/10/22 07:12:50;;;;;;;14.38;2.28;;;;;;;;;;5058235;28;20087;-66
2021/10/22 07:15:16;;;;;;;11.95;2.58;;;;;;;;;;5061063;28;20084;-66
2021/10/22 07:17:45;;;;;;;20.17;2.75;;;;;;;;;;5058511;28;20140;-66
2021/10/22 07:20:12;;;;;;;15.27;2.50;;;;;;;;;;5061703;28;20095;-67
2021/10/22 07:22:50;;;;;;;10.43;2.60;;;;;;;;;;5051500;28;20045;-66
2021/10/22 07:25:18;;;;;;;12.80;2.78;;;;;;;;;;5064148;28;20562;-66
2021/10/22 07:27:45;;;;;;;16.27;2.42;;;;;;;;;;5060458;28;20466;-66
2021/10/22 07:30:12;;;;;;;11.95;2.20;;;;;;;;;;5061689;28;20135;-66
2021/10/22 07:32:38;;;;;;;12.98;1.95;;;;;;;;;;5060706;28;20500;-66
2021/10/22 07:35:07;;;;;;;14.13;1.90;;;;;;;;;;5060021;28;20468;-67
2021/10/22 07:37:34;;;;;;;9.67;1.70;;;;;;;;;;5061049;28;20160;-66
2021/10/22 07:40:02;;;;;;;6.93;1.70;;;;;;;;;;5057255;28;20459;-66
2021/10/22 07:42:28;;;;;;;15.27;2.25;;;;;;;;;;5053035;28;20107;-66
2021/10/22 07:44:56;;;;;;;14.07;2.30;;;;;;;;;;5060858;28;20484;-66
2021/10/22 07:47:23;;;;;;;13.57;1.75;;;;;;;;;;5062474;28;20084;-66
2021/10/22 07:49:53;;;;;;;15.15;1.98;;;;;;;;;;5062849;28;20131;-66
2021/10/22 07:52:20;;;;;;;10.13;1.90;;;;;;;;;;5058951;28;20471;-66
2021/10/22 07:54:47;;;;;;;17.75;2.40;;;;;;;;;;5062643;28;20088;-65
2021/10/22 07:57:14;;;;;;;6.82;1.60;;;;;;;;;;5069714;28;20076;-65
2021/10/22 07:59:41;;;;;;;10.02;1.90;;;;;;;;;;5067487;28;20127;-65
2021/10/22 08:02:08;;;;;;;14.23;1.73;;;;;;;;;;5063297;28;20082;-65
2021/10/22 08:04:40;;;;;;;12.13;2.30;;;;;;;;;;5062958;28;20040;-65
2021/10/22 08:07:07;;;;;;;11.57;2.63;;;;;;;;;;5060817;28;20135;-65
2021/10/22 08:09:33;;;;;;;8.98;1.73;;;;;;;;;;5067183;28;20080;-65
2021/10/22 08:12:00;;;;;;;13.95;1.58;;;;;;;;;;5069944;28;20198;-65
2021/10/22 08:14:26;;;;;;;9.05;2.33;;;;;;;;;;5066123;28;20133;-65
2021/10/22 08:16:53;;;;;;;8.77;1.70;;;;;;;;;;5066326;28;20563;-65
2021/10/22 08:19:20;;;;;;;8.00;1.80;;;;;;;;;;5064364;28;20095;-65
2021/10/22 08:22:26;;;;;;;9.02;1.50;;;;;;;;;;5066501;28;20491;-66
2021/10/22 08:24:45;;;;;;;6.97;2.13;;;;;;;;;;5061810;28;20453;-65
2021/10/22 08:27:12;;;;;;;5.70;1.77;;;;;;;;;;5062927;28;20514;-65
2021/10/22 08:29:38;;;;;;;18.10;2.10;;;;;;;;;;5063284;28;20365;-66
2021/10/22 08:32:05;;;;;;;12.00;2.28;;;;;;;;;;5062459;28;20053;-65
2021/10/22 08:34:31;;;;;;;9.63;1.80;;;;;;;;;;5067614;28;20136;-66
2021/10/22 08:36:58;;;;;;;7.72;1.52;;;;;;;;;;5065777;28;20199;-66
2021/10/22 08:39:25;;;;;;;4.78;1.40;;;;;;;;;;5063684;28;20099;-65
2021/10/22 08:41:53;;;;;;;6.95;1.58;;;;;;;;;;5068089;28;20083;-65
2021/10/22 08:44:22;;;;;;;6.90;1.40;;;;;;;;;;5062635;28;20052;-65
2021/10/22 08:46:49;;;;;;;5.00;1.50;;;;;;;;;;5065115;28;20853;-66
2021/10/22 08:49:16;;;;;;;8.68;1.52;;;;;;;;;;5065532;28;20076;-65
2021/10/22 08:51:43;;;;;;;6.87;1.60;;;;;;;;;;5065284;28;20056;-66
2021/10/22 08:54:11;;;;;;;4.22;0.93;;;;;;;;;;5059729;28;20402;-66
2021/10/22 08:56:41;;;;;;;7.22;1.38;;;;;;;;;;5057835;28;20550;-66
2021/10/22 08:59:08;;;;;;;9.30;1.40;;;;;;;;;;5065337;28;20124;-66
2021/10/22 09:01:35;;;;;;;;;;;;;;;;;;5059270;28;20140;-66
2021/10/22 09:04:02;;;;;;;8.73;1.15;;;;;;;;;;5057655;28;19921;-66
2021/10/22 09:06:45;;;;;;;11.77;1.58;;;;;;;;;;5063155;28;20058;-66
2021/10/22 09:09:16;;;;;;;6.72;1.63;;;;;;;;;;5064747;28;20149;-65
2021/10/22 09:11:46;;;;;;;9.27;1.77;;;;;;;;;;5065493;28;20152;-66
2021/10/22 09:14:16;;;;;;;6.32;1.25;;;;;;;;;;5060776;28;20083;-66
2021/10/22 09:16:50;;;;;;;7.15;1.27;;;;;;;;;;5065262;28;20080;-65
2021/10/22 09:19:36;;;;;;;5.45;1.20;;;;;;;;;;5064454;28;20474;-66
2021/10/22 09:22:24;;;;;;;5.18;1.30;;;;;;;;;;5065843;28;20091;-65
2021/10/22 09:24:55;;;;;;;5.45;1.10;;;;;;;;;;5060992;28;20081;-65
2021/10/22 09:27:45;;;;;;;9.05;1.65;;;;;;;;;;5062597;28;20049;-65
2021/10/22 09:30:31;;;;;;;7.32;1.55;;;;;;;;;;5057231;28;20135;-66
2021/10/22 09:33:13;;;;;;;12.15;1.92;;;;;;;;;;5064764;28;20097;-65
2021/10/22 09:35:47;;;;;;;10.75;1.85;;;;;;;;;;5063737;28;20139;-66
2021/10/22 09:38:13;;;;;;;8.02;1.55;;;;;;;;;;5067455;28;20135;-66
2021/10/22 09:40:41;;;;;;;5.32;1.10;;;;;;;;;;5067056;28;20052;-66
2021/10/22 09:43:15;;;;;;;4.30;0.90;;;;;;;;;;5063309;28;20135;-65
2021/10/22 09:45:42;;;;;;;3.67;0.85;;;;;;;;;;5063295;28;20492;-66
2021/10/22 09:48:21;;;;;;;9.45;1.38;;;;;;;;;;5056080;28;20067;-65
2021/10/22 09:50:48;;;;;;;7.53;1.45;;;;;;;;;;5058577;28;20136;-65
2021/10/22 09:53:27;;;;;;;6.20;1.00;;;;;;;;;;5063154;28;20477;-65
2021/10/22 09:56:06;;;;;;;4.00;1.20;;;;;;;;;;5065524;28;20569;-65
2021/10/22 09:58:33;;;;;;;6.25;1.20;;;;;;;;;;5065706;28;20137;-65
2021/10/22 10:01:10;;;;;;;8.95;1.40;;;;;;;;;;5046867;28;20076;-65
2021/10/22 10:03:38;;;;;;;7.07;1.58;;;;;;;;;;5063588;28;20044;-65
2021/10/22 10:06:07;;;;;;;;;;;;;;;;;;5064879;28;20444;-65
2021/10/22 10:08:34;;;;;;;5.43;1.52;;;;;;;;;;5060925;28;19982;-65
2021/10/22 10:11:02;;;;;;;6.90;1.10;;;;;;;;;;5061663;28;20485;-65
2021/10/22 10:13:30;;;;;;;2.88;0.98;;;;;;;;;;5062946;28;20638;-66
2021/10/22 10:15:58;;;;;;;9.15;1.50;;;;;;;;;;5059196;28;20079;-65
2021/10/22 10:18:28;;;;;;;2.97;0.77;;;;;;;;;;5066223;28;20086;-65
2021/10/22 10:20:56;;;;;;;8.73;1.23;;;;;;;;;;5064736;28;20592;-65
2021/10/22 10:23:23;;;;;;;11.10;1.30;;;;;;;;;;5060236;28;20143;-65
2021/10/22 10:25:49;;;;;;;7.00;1.48;;;;;;;;;;5065344;28;20140;-65
2021/10/22 10:28:16;;;;;;;4.40;1.05;;;;;;;;;;5059536;28;20517;-65
2021/10/22 10:30:43;;;;;;;3.35;0.80;;;;;;;;;;5063174;28;20147;-65
2021/10/22 10:33:28;;;;;;;11.68;1.42;;;;;;;;;;5060451;28;20136;-66
2021/10/22 10:35:56;;;;;;;8.13;1.15;;;;;;;;;;5062475;28;20459;-66
2021/10/22 10:38:42;;;;;;;5.05;1.58;;;;;;;;;;5067796;28;20079;-66
2021/10/22 10:41:16;;;;;;;8.10;1.90;;;;;;;;;;5063887;28;20051;-65
2021/10/22 10:43:43;;;;;;;8.10;1.48;;;;;;;;;;5062824;28;20143;-65
2021/10/22 10:46:33;;;;;;;4.05;0.90;;;;;;;;;;5061966;28;20076;-66
2021/10/22 10:48:59;;;;;;;5.13;0.98;;;;;;;;;;5051618;28;20076;-66
2021/10/22 10:51:36;;;;;;;1.40;0.70;;;;;;;;;;5064393;28;20140;-66
2021/10/22 10:54:03;;;;;;;5.50;1.33;;;;;;;;;;5064852;28;20155;-66
2021/10/22 10:56:34;;;;;;;3.13;0.93;;;;;;;;;;5062196;28;20152;-66
2021/10/22 10:59:00;;;;;;;9.95;1.40;;;;;;;;;;5067027;28;20106;-66
2021/10/22 11:01:30;;;;;;;7.20;1.00;;;;;;;;;;5064598;28;20493;-66
2021/10/22 11:03:57;;;;;;;3.17;0.82;;;;;;;;;;5060126;28;20114;-66
2021/10/22 11:06:52;;;;;;;4.97;1.42;;;;;;;;;;5062970;28;20106;-66
2021/10/22 11:09:32;;;;;;;5.03;0.80;;;;;;;;;;5047909;28;20076;-66
2021/10/22 11:11:59;;;;;;;2.25;1.00;;;;;;;;;;5063759;28;20488;-66
2021/10/22 11:14:40;;;;;;;3.80;0.73;;;;;;;;;;5066138;28;20087;-66
2021/10/22 11:17:08;;;;;;;3.92;1.10;;;;;;;;;;5061733;28;20080;-66
2021/10/22 11:19:36;;;;;;;3.63;1.10;;;;;;;;;;5060586;28;20049;-66
2021/10/22 11:22:10;;;;;;;4.90;1.42;;;;;;;;;;5062248;28;20128;-66
2021/10/22 11:24:38;;;;;;;8.80;1.90;;;;;;;;;;5063549;28;20096;-66
2021/10/22 11:27:11;;;;;;;3.80;0.98;;;;;;;;;;5056822;28;20103;-66
2021/10/22 11:29:40;;;;;;;4.25;0.90;;;;;;;;;;5055014;28;20049;-66
2021/10/22 11:32:09;;;;;;;;;;;;;;;;;;5060570;28;20124;-66
2021/10/22 11:34:38;;;;;;;7.38;1.27;;;;;;;;;;5066282;28;20050;-66
2021/10/22 11:37:11;;;;;;;3.92;0.80;;;;;;;;;;5067556;28;20535;-66
2021/10/22 11:39:40;;;;;;;6.35;0.93;;;;;;;;;;5067755;28;20106;-66
2021/10/22 11:42:10;;;;;;;3.17;0.80;;;;;;;;;;5068793;28;20610;-66
2021/10/22 11:44:43;;;;;;;5.28;1.02;;;;;;;;;;5073799;28;20501;-66
2021/10/22 11:47:10;;;;;;;4.38;1.02;;;;;;;;;;5067175;28;20636;-66
2021/10/22 11:49:37;;;;;;;2.88;0.80;;;;;;;;;;5069280;28;20059;-66
2021/10/22 11:52:08;;;;;;;6.75;0.82;;;;;;;;;;5062259;28;20110;-66
2021/10/22 11:54:49;;;;;;;5.97;1.00;;;;;;;;;;5075109;28;20535;-66
2021/10/22 11:57:17;;;;;;;4.13;1.17;;;;;;;;;;5064454;28;20165;-66
2021/10/22 11:59:45;;;;;;;4.93;0.50;;;;;;;;;;5061962;28;20136;-66
2021/10/22 12:02:12;;;;;;;4.38;0.77;;;;;;;;;;5066470;28;20145;-66
2021/10/22 12:04:40;;;;;;;2.88;0.90;;;;;;;;;;5060625;28;20049;-66
2021/10/22 12:07:08;;;;;;;6.15;0.90;;;;;;;;;;5065375;28;20079;-66
2021/10/22 12:09:37;;;;;;;4.70;1.13;;;;;;;;;;5068003;28;20080;-66
2021/10/22 12:12:07;;;;;;;2.17;0.95;;;;;;;;;;5067436;28;20132;-66
2021/10/22 12:14:35;;;;;;;5.35;0.80;;;;;;;;;;5067846;28;20084;-66
2021/10/22 12:17:02;;;;;;;5.35;1.08;;;;;;;;;;5072351;28;20140;-66
2021/10/22 12:19:28;;;;;;;2.05;0.85;;;;;;;;;;5065114;28;20090;-66
2021/10/22 12:21:56;;;;;;;6.68;1.20;;;;;;;;;;5070261;28;20132;-66
2021/10/22 12:24:23;;;;;;;2.85;0.88;;;;;;;;;;5066929;28;20045;-67
2021/10/22 12:27:02;;;;;;;2.53;1.00;;;;;;;;;;5062331;28;20094;-66
2021/10/22 12:29:43;;;;;;;3.33;0.70;;;;;;;;;;5075227;28;20215;-65
2021/10/22 12:32:24;;;;;;;1.15;0.80;;;;;;;;;;5069519;28;20048;-66
2021/10/22 12:34:54;;;;;;;2.28;0.90;;;;;;;;;;5065902;28;20084;-67
2021/10/22 12:37:30;;;;;;;1.23;0.57;;;;;;;;;;5066258;28;20088;-66
2021/10/22 12:39:57;;;;;;;4.60;0.65;;;;;;;;;;5071272;28;20083;-66
2021/10/22 12:42:33;;;;;;;2.55;0.60;;;;;;;;;;5065165;28;20091;-67
2021/10/22 12:45:11;;;;;;;3.80;0.93;;;;;;;;;;5060204;28;20087;-66
2021/10/22 12:47:38;;;;;;;;;;;;;;;;;;5062978;28;20132;-66
2021/10/22 12:50:04;;;;;;;5.28;0.98;;;;;;;;;;5066631;28;19924;-66
2021/10/22 12:52:31;;;;;;;2.38;0.70;;;;;;;;;;5068314;28;20080;-66
2021/10/22 12:54:58;;;;;;;3.50;0.88;;;;;;;;;;5067288;28;20140;-66
2021/10/22 12:57:25;;;;;;;2.58;0.98;;;;;;;;;;5063504;28;20139;-66
2021/10/22 12:59:52;;;;;;;3.67;0.68;;;;;;;;;;5045744;28;20087;-66
2021/10/22 13:02:23;;;;;;;3.78;0.60;;;;;;;;;;5064785;28;20206;-66
2021/10/22 13:05:13;;;;;;;5.72;0.82;;;;;;;;;;5064397;28;20110;-66
2021/10/22 13:07:51;;;;;;;3.10;0.90;;;;;;;;;;5068203;28;20098;-66
2021/10/22 13:10:18;;;;;;;;;;;;;;;;;;5062509;28;20493;-67
2021/10/22 13:12:56;;;;;;;5.32;1.15;;;;;;;;;;5063591;28;19963;-66
2021/10/22 13:20:21;;;;;;;2.92;0.77;;;;;;;;;;5061935;28;20079;-66
2021/10/22 13:20:57;;;;;;;2.47;0.60;;;;;;;;;;5061715;28;20075;-66
2021/10/22 13:23:23;;;;;;;2.13;0.60;;;;;;;;;;5062900;28;20072;-66
2021/10/22 13:25:50;;;;;;;5.03;0.90;;;;;;;;;;5063414;28;20456;-66
2021/10/22 13:28:31;;;;;;;2.50;0.75;;;;;;;;;;5063003;28;20331;-66
2021/10/22 13:31:09;;;;;;;6.03;1.00;;;;;;;;;;5057538;28;20412;-66
2021/10/22 13:33:37;;;;;;;3.80;1.02;;;;;;;;;;5064306;28;20054;-66
2021/10/22 13:36:04;;;;;;;2.10;1.02;;;;;;;;;;5066383;28;20135;-66
2021/10/22 13:38:31;;;;;;;2.65;0.70;;;;;;;;;;5059853;28;20092;-66
2021/10/22 13:40:59;;;;;;;2.90;0.88;;;;;;;;;;5061731;28;20507;-67
2021/10/22 13:43:26;;;;;;;4.25;0.80;;;;;;;;;;5058512;28;20476;-67
2021/10/22 13:45:53;;;;;;;4.28;1.15;;;;;;;;;;5061026;28;20080;-66
2021/10/22 13:48:19;;;;;;;8.60;1.60;;;;;;;;;;5060431;28;20134;-67
2021/10/22 13:50:47;;;;;;;4.07;0.88;;;;;;;;;;5064051;28;20135;-67
2021/10/22 13:53:19;;;;;;;4.22;0.80;;;;;;;;;;5066294;28;20737;-67
2021/10/22 13:55:45;;;;;;;2.95;0.68;;;;;;;;;;5065901;28;20139;-67
2021/10/22 13:58:12;;;;;;;4.68;0.77;;;;;;;;;;5062854;28;20783;-66
2021/10/22 14:00:38;;;;;;;3.42;0.77;;;;;;;;;;5058131;28;20401;-67
2021/10/22 14:03:06;;;;;;;2.38;0.93;;;;;;;;;;5058393;28;20761;-66
2021/10/22 14:05:35;;;;;;;3.15;0.80;;;;;;;;;;5055733;28;20083;-67
2021/10/22 14:08:01;;;;;;;2.72;0.93;;;;;;;;;;5060845;28;20083;-67
2021/10/22 14:10:28;;;;;;;3.58;0.80;;;;;;;;;;5060325;28;20127;-66
2021/10/22 14:13:10;;;;;;;1.03;0.70;;;;;;;;;;5062266;28;20060;-66
2021/10/22 14:15:58;;;;;;;5.68;1.25;;;;;;;;;;5065348;28;20370;-67
2021/10/22 14:23:17;;;;;;;4.30;0.88;;;;;;;;;;5062767;28;20118;-66
2021/10/22 14:29:15;;;;;;;1.77;0.73;;;;;;;;;;5062303;28;20088;-67
2021/10/22 14:31:42;;;;;;;3.92;0.98;;;;;;;;;;5061174;28;20110;-66
2021/10/22 14:34:09;;;;;;;2.35;0.75;;;;;;;;;;5063550;28;20072;-67
2021/10/22 14:36:41;;;;;;;3.33;0.90;;;;;;;;;;5057754;28;20083;-67
2021/10/22 14:39:07;;;;;;;5.15;0.95;;;;;;;;;;5060298;28;20099;-66
2021/10/22 14:41:35;;;;;;;4.35;0.90;;;;;;;;;;5061631;28;20087;-66
2021/10/22 14:44:05;;;;;;;2.95;1.10;;;;;;;;;;5062563;28;20048;-66
2021/10/22 14:46:46;;;;;;;1.73;0.63;;;;;;;;;;5063348;28;20094;-66
2021/10/22 14:49:18;;;;;;;3.35;0.90;;;;;;;;;;5058702;28;20463;-67
2021/10/22 14:54:24;;;;;;;2.92;1.27;;;;;;;;;;5058914;28;20136;-66
2021/10/22 14:56:51;;;;;;;2.70;0.98;;;;;;;;;;5061877;28;20187;-66
2021/10/22 14:59:18;;;;;;;4.43;0.90;;;;;;;;;;5052004;28;20488;-66
2021/10/22 15:01:46;;;;;;;;;;;;;;;;;;5059900;28;20098;-66
2021/10/22 15:04:13;;;;;;;4.50;1.30;;;;;;;;;;5057392;28;19946;-67
2021/10/22 15:06:40;;;;;;;3.28;1.00;;;;;;;;;;5062837;28;20279;-67
2021/10/22 15:09:07;;;;;;;6.53;1.50;;;;;;;;;;5062521;28;20152;-67